Time;durP1;ratioP1;P1;durP2;ratioP2;P2;SDS_P1;SDS_P2;PMS_P1;PMS_P2;Temp;Humidity;BMP_temperature;BMP_pressure;BME280_temperature;BME280_humidity;BME280_pressure;Samples;Min_cycle;Max_cycle;Signal;HPM_P1;HPM_P2
2022/02/25 00:00:33;;;;;;;;;;;3.10;99.90;;;;;;4175171;28;20322;-47
2022/02/25 00:02:36;;;;;;;;;;;3.10;99.90;;;;;;4177821;28;19929;-50
2022/02/25 00:04:38;;;;;;;;;;;3.10;99.90;;;;;;4177634;28;19929;-49
2022/02/25 00:06:40;;;;;;;;;;;3.20;99.90;;;;;;4177053;28;19929;-47
2022/02/25 00:08:42;;;;;;;;;;;3.20;99.90;;;;;;4178973;28;19929;-48
2022/02/25 00:10:44;;;;;;;;;;;3.20;99.90;;;;;;4177853;28;19928;-49
2022/02/25 00:12:47;;;;;;;;;;;3.10;99.90;;;;;;4176025;28;19951;-48
2022/02/25 00:14:49;;;;;;;;;;;3.10;99.90;;;;;;4179387;28;20448;-48
2022/02/25 00:16:51;;;;;;;;;;;3.20;99.90;;;;;;4177073;28;19929;-49
2022/02/25 00:18:53;;;;;;;;;;;3.10;99.90;;;;;;4174881;28;19925;-50
2022/02/25 00:20:55;;;;;;;;;;;3.10;99.90;;;;;;4179459;28;19929;-49
2022/02/25 00:22:57;;;;;;;;;;;3.00;99.90;;;;;;4170880;28;20337;-49
2022/02/25 00:24:59;;;;;;;;;;;2.80;99.90;;;;;;4177732;28;19932;-49
2022/02/25 00:27:00;;;;;;;;;;;2.70;99.90;;;;;;4178475;28;20654;-49
2022/02/25 00:29:04;;;;;;;;;;;2.80;99.90;;;;;;4176134;28;19932;-49
2022/02/25 00:31:06;;;;;;;;;;;2.70;99.90;;;;;;4176718;28;19929;-49
2022/02/25 00:33:08;;;;;;;;;;;2.60;99.90;;;;;;4178785;28;19924;-48
2022/02/25 00:35:10;;;;;;;;;;;2.60;99.90;;;;;;4177188;28;19928;-46
2022/02/25 00:37:12;;;;;;;;;;;2.50;99.90;;;;;;4175807;28;20245;-48
2022/02/25 00:39:14;;;;;;;;;;;2.30;99.90;;;;;;4178688;28;20010;-48
2022/02/25 00:41:16;;;;;;;;;;;2.10;99.90;;;;;;4171182;28;20404;-48
2022/02/25 00:43:18;;;;;;;;;;;2.00;99.90;;;;;;4164483;28;19979;-48
2022/02/25 00:45:20;;;;;;;;;;;2.10;99.90;;;;;;4177487;28;20016;-49
2022/02/25 00:47:22;;;;;;;;;;;2.40;99.90;;;;;;4174095;28;19986;-47
2022/02/25 00:49:24;;;;;;;;;;;2.50;99.90;;;;;;4163917;28;19928;-47
2022/02/25 00:51:27;;;;;;;;;;;2.60;99.90;;;;;;4168870;28;19975;-50
2022/02/25 00:53:29;;;;;;;;;;;2.60;99.90;;;;;;4173714;28;19960;-49
2022/02/25 00:55:31;;;;;;;;;;;2.60;99.90;;;;;;4162712;28;20008;-50
2022/02/25 00:57:33;;;;;;;;;;;2.60;99.90;;;;;;4178155;28;19929;-51
2022/02/25 00:59:35;;;;;;;;;;;2.60;99.90;;;;;;4176580;28;19964;-50
2022/02/25 01:01:37;;;;;;;;;;;2.80;99.90;;;;;;4176655;28;19998;-49
2022/02/25 01:03:39;;;;;;;;;;;2.60;99.90;;;;;;4178328;28;19924;-49
2022/02/25 01:05:41;;;;;;;;;;;2.40;99.90;;;;;;4176515;28;19932;-46
2022/02/25 01:07:43;;;;;;;;;;;2.20;99.90;;;;;;4173323;28;19931;-50
2022/02/25 01:09:46;;;;;;;;;;;2.20;99.90;;;;;;4174910;28;19987;-49
2022/02/25 01:11:48;;;;;;;;;;;2.20;99.90;;;;;;4169688;28;20356;-49
2022/02/25 01:13:50;;;;;;;;;;;2.00;99.90;;;;;;4169431;28;19972;-50
2022/02/25 01:15:52;;;;;;;;;;;1.90;99.90;;;;;;4176926;28;20019;-47
2022/02/25 01:17:57;;;;;;;;;;;1.80;99.90;;;;;;4167043;28;19968;-48
2022/02/25 01:19:59;;;;;;;;;;;1.90;99.90;;;;;;4161313;28;19968;-50
2022/02/25 01:22:01;;;;;;;;;;;2.00;99.90;;;;;;4176228;28;20308;-49
2022/02/25 01:24:03;;;;;;;;;;;2.20;99.90;;;;;;4168535;28;19978;-49
2022/02/25 01:26:05;;;;;;;;;;;2.40;99.90;;;;;;4177382;28;20341;-47
2022/02/25 01:28:07;;;;;;;;;;;2.30;99.90;;;;;;4176651;28;19925;-47
2022/02/25 01:30:10;;;;;;;;;;;2.30;99.90;;;;;;4170036;28;19971;-48
2022/02/25 01:32:14;;;;;;;;;;;2.40;99.90;;;;;;4178086;28;19928;-47
2022/02/25 01:34:17;;;;;;;;;;;2.30;99.90;;;;;;4176165;28;19936;-50
2022/02/25 01:36:19;;;;;;;;;;;2.30;99.90;;;;;;4172011;28;19951;-50
2022/02/25 01:38:21;;;;;;;;;;;2.20;99.90;;;;;;4178009;28;19980;-46
2022/02/25 01:40:23;;;;;;;;;;;2.20;99.90;;;;;;4173295;28;19925;-48
2022/02/25 01:42:25;;;;;;;;;;;2.40;99.90;;;;;;4173757;28;20608;-47
2022/02/25 01:44:27;;;;;;;;;;;2.50;99.90;;;;;;4162097;28;19982;-48
2022/02/25 01:46:29;;;;;;;;;;;2.70;99.90;;;;;;4176015;28;19925;-48
2022/02/25 01:48:31;;;;;;;;;;;2.70;99.90;;;;;;4174788;28;19932;-49
2022/02/25 01:50:35;;;;;;;;;;;2.80;99.90;;;;;;4177541;28;19932;-49
2022/02/25 01:52:39;;;;;;;;;;;2.90;99.90;;;;;;4169342;28;20024;-49
2022/02/25 01:54:45;;;;;;;;;;;2.90;99.90;;;;;;4165236;28;20002;-50
2022/02/25 01:56:47;;;;;;;;;;;2.80;99.90;;;;;;4177302;28;19968;-48
2022/02/25 01:58:49;;;;;;;;;;;3.00;99.90;;;;;;4173381;28;20496;-49
2022/02/25 02:00:51;;;;;;;;;;;2.80;99.90;;;;;;4174795;28;19925;-50
2022/02/25 02:02:54;;;;;;;;;;;2.70;99.90;;;;;;4177773;28;20458;-51
2022/02/25 02:04:57;;;;;;;;;;;2.70;99.90;;;;;;4174648;28;19925;-49
2022/02/25 02:06:59;;;;;;;;;;;2.70;99.90;;;;;;4175152;28;19925;-48
2022/02/25 02:09:01;;;;;;;;;;;2.50;99.90;;;;;;4177918;28;19982;-48
2022/02/25 02:11:03;;;;;;;;;;;2.50;99.90;;;;;;4175352;28;20407;-50
2022/02/25 02:13:05;;;;;;;;;;;2.60;99.90;;;;;;4176046;28;19933;-50
2022/02/25 02:15:07;;;;;;;;;;;2.70;99.90;;;;;;4175617;28;19958;-50
2022/02/25 02:17:09;;;;;;;;;;;2.50;99.90;;;;;;4169212;28;19952;-48
2022/02/25 02:19:11;;;;;;;;;;;2.50;99.90;;;;;;4174924;28;19936;-49
2022/02/25 02:21:13;;;;;;;;;;;2.70;99.90;;;;;;4175988;28;19941;-48
2022/02/25 02:23:15;;;;;;;;;;;2.80;99.90;;;;;;4174723;28;20436;-47
2022/02/25 02:25:17;;;;;;;;;;;2.70;99.90;;;;;;4175923;28;19933;-47
2022/02/25 02:27:19;;;;;;;;;;;2.70;99.90;;;;;;4176984;28;19932;-50
2022/02/25 02:29:21;;;;;;;;;;;2.70;99.90;;;;;;4172548;28;19929;-48
2022/02/25 02:31:23;;;;;;;;;;;2.90;99.90;;;;;;4175367;28;19924;-48
2022/02/25 02:33:25;;;;;;;;;;;3.00;99.90;;;;;;4175109;28;20019;-49
2022/02/25 02:35:27;;;;;;;;;;;2.90;99.90;;;;;;4175311;28;20027;-47
2022/02/25 02:37:29;;;;;;;;;;;2.90;99.90;;;;;;4161363;28;19929;-50
2022/02/25 02:39:34;;;;;;;;;;;2.80;99.90;;;;;;4175685;28;19929;-48
2022/02/25 02:41:36;;;;;;;;;;;2.60;99.90;;;;;;4169715;28;19979;-49
2022/02/25 02:43:38;;;;;;;;;;;2.70;99.90;;;;;;4163156;28;19936;-49
2022/02/25 02:45:40;;;;;;;;;;;2.70;99.90;;;;;;4174508;28;19932;-47
2022/02/25 02:47:43;;;;;;;;;;;2.60;99.90;;;;;;4175147;28;21478;-49
2022/02/25 02:49:45;;;;;;;;;;;2.60;99.90;;;;;;4176811;28;19928;-47
2022/02/25 02:51:47;;;;;;;;;;;2.60;99.90;;;;;;4171783;28;19951;-49
2022/02/25 02:53:49;;;;;;;;;;;2.70;99.90;;;;;;4166318;28;19925;-50
2022/02/25 02:55:51;;;;;;;;;;;2.70;99.90;;;;;;4177156;28;20444;-47
2022/02/25 02:57:53;;;;;;;;;;;2.70;99.90;;;;;;4174482;28;19971;-47
2022/02/25 02:59:55;;;;;;;;;;;2.80;99.90;;;;;;4174293;28;19929;-48
2022/02/25 03:01:58;;;;;;;;;;;2.90;99.90;;;;;;4169223;28;19929;-47
2022/02/25 03:04:00;;;;;;;;;;;2.80;99.90;;;;;;4172544;28;20455;-47
2022/02/25 03:06:02;;;;;;;;;;;2.80;99.90;;;;;;4166643;28;19924;-50
2022/02/25 03:08:05;;;;;;;;;;;2.90;99.90;;;;;;4169890;28;20035;-49
2022/02/25 03:10:07;;;;;;;;;;;3.00;99.90;;;;;;4190578;28;19932;-48
2022/02/25 03:12:09;;;;;;;;;;;2.90;99.90;;;;;;4170402;28;19956;-48
2022/02/25 03:14:11;;;;;;;;;;;3.00;99.90;;;;;;4175391;28;19971;-50
2022/02/25 03:16:12;;;;;;;;;;;3.00;99.90;;;;;;4174089;28;19951;-47
2022/02/25 03:18:15;;;;;;;;;;;2.90;99.90;;;;;;4173666;28;19940;-50
2022/02/25 03:20:17;;;;;;;;;;;3.10;99.90;;;;;;4178410;28;19925;-50
2022/02/25 03:22:19;;;;;;;;;;;3.10;99.90;;;;;;4174063;28;19967;-51
2022/02/25 03:24:21;;;;;;;;;;;3.10;99.90;;;;;;4174181;28;19952;-50
2022/02/25 03:26:23;;;;;;;;;;;3.10;99.90;;;;;;4179701;28;19924;-51
2022/02/25 03:28:25;;;;;;;;;;;3.00;99.90;;;;;;4174275;28;19933;-51
2022/02/25 03:30:26;;;;;;;;;;;2.90;99.90;;;;;;4174334;28;19964;-50
2022/02/25 03:32:29;;;;;;;;;;;2.70;99.90;;;;;;4178320;28;19929;-50
2022/02/25 03:34:31;;;;;;;;;;;2.60;99.90;;;;;;4177918;28;19925;-50
2022/02/25 03:36:33;;;;;;;;;;;2.50;99.90;;;;;;4177334;28;19925;-49
2022/02/25 03:38:34;;;;;;;;;;;2.60;99.90;;;;;;4178157;28;20317;-48
2022/02/25 03:40:37;;;;;;;;;;;2.60;99.90;;;;;;4177641;28;19932;-49
2022/02/25 03:42:39;;;;;;;;;;;2.60;99.90;;;;;;4177914;28;19991;-48
2022/02/25 03:44:41;;;;;;;;;;;2.70;99.90;;;;;;4168559;28;19925;-50
2022/02/25 03:46:43;;;;;;;;;;;2.80;99.90;;;;;;4169558;28;19936;-49
2022/02/25 03:48:45;;;;;;;;;;;2.80;99.90;;;;;;4179418;28;20023;-50
2022/02/25 03:50:46;;;;;;;;;;;2.80;99.90;;;;;;4178155;28;19932;-50
2022/02/25 03:52:48;;;;;;;;;;;2.80;99.90;;;;;;4175763;28;19963;-48
2022/02/25 03:54:50;;;;;;;;;;;2.90;99.90;;;;;;4162291;28;20325;-49
2022/02/25 03:56:52;;;;;;;;;;;2.90;99.90;;;;;;4175555;28;19932;-50
2022/02/25 03:58:56;;;;;;;;;;;3.00;99.90;;;;;;4175397;28;19951;-47
2022/02/25 04:00:58;;;;;;;;;;;3.10;99.90;;;;;;4179101;28;19955;-49
2022/02/25 04:03:00;;;;;;;;;;;3.00;99.90;;;;;;4175158;28;19931;-47
2022/02/25 04:05:03;;;;;;;;;;;3.00;99.90;;;;;;4174693;28;19983;-47
2022/02/25 04:07:05;;;;;;;;;;;3.10;99.90;;;;;;4178493;28;19932;-47
2022/02/25 04:09:07;;;;;;;;;;;3.00;99.90;;;;;;4168474;28;19932;-46
2022/02/25 04:11:09;;;;;;;;;;;3.10;99.90;;;;;;4166514;28;20504;-46
2022/02/25 04:13:12;;;;;;;;;;;3.00;99.90;;;;;;4177773;28;20380;-49
2022/02/25 04:15:14;;;;;;;;;;;3.10;99.90;;;;;;4176123;28;19933;-51
2022/02/25 04:17:19;;;;;;;;;;;3.10;99.90;;;;;;4177487;28;19924;-48
2022/02/25 04:19:21;;;;;;;;;;;3.20;99.90;;;;;;4178600;28;19971;-49
2022/02/25 04:21:22;;;;;;;;;;;3.20;99.90;;;;;;4177046;28;19952;-50
2022/02/25 04:23:24;;;;;;;;;;;3.20;99.90;;;;;;4177054;28;19929;-48
2022/02/25 04:25:26;;;;;;;;;;;3.10;99.90;;;;;;4179100;28;19935;-50
2022/02/25 04:27:28;;;;;;;;;;;3.10;99.90;;;;;;4174245;28;19929;-49
2022/02/25 04:29:30;;;;;;;;;;;3.00;99.90;;;;;;4165449;28;19929;-48
2022/02/25 04:31:32;;;;;;;;;;;3.00;99.90;;;;;;4175189;28;19968;-49
2022/02/25 04:33:34;;;;;;;;;;;3.00;99.90;;;;;;4177198;28;19928;-49
2022/02/25 04:35:36;;;;;;;;;;;3.10;99.90;;;;;;4176572;28;19932;-49
2022/02/25 04:37:38;;;;;;;;;;;3.10;99.90;;;;;;4177565;28;20710;-48
2022/02/25 04:39:40;;;;;;;;;;;3.10;99.90;;;;;;4174590;28;20343;-47
2022/02/25 04:41:42;;;;;;;;;;;3.20;99.90;;;;;;4163911;28;19925;-47
2022/02/25 04:43:46;;;;;;;;;;;3.10;99.90;;;;;;4177185;28;19924;-50
2022/02/25 04:45:58;;;;;;;;;;;3.20;99.90;;;;;;4147027;28;19988;-50
2022/02/25 04:47:59;;;;;;;;;;;3.20;99.90;;;;;;4174032;28;19978;-50
2022/02/25 04:50:02;;;;;;;;;;;3.20;99.90;;;;;;4169745;28;19925;-48
2022/02/25 04:52:04;;;;;;;;;;;3.20;99.90;;;;;;4176810;28;20343;-50
2022/02/25 04:54:06;;;;;;;;;;;3.20;99.90;;;;;;4167878;28;19925;-49
2022/02/25 04:56:09;;;;;;;;;;;3.20;99.90;;;;;;4177235;28;19978;-50
2022/02/25 04:58:13;;;;;;;;;;;3.30;99.90;;;;;;4176705;28;20006;-47
2022/02/25 05:00:15;;;;;;;;;;;3.30;99.90;;;;;;4169345;28;19936;-51
2022/02/25 05:02:17;;;;;;;;;;;3.30;99.90;;;;;;4175820;28;20669;-46
2022/02/25 05:04:19;;;;;;;;;;;3.30;99.90;;;;;;4171279;28;19955;-50
2022/02/25 05:06:21;;;;;;;;;;;3.30;99.90;;;;;;4177981;28;19960;-50
2022/02/25 05:08:23;;;;;;;;;;;3.30;99.90;;;;;;4172054;28;19943;-48
2022/02/25 05:10:27;;;;;;;;;;;3.20;99.90;;;;;;4173048;28;19956;-51
2022/02/25 05:12:29;;;;;;;;;;;3.10;99.90;;;;;;4178313;28;20039;-51
2022/02/25 05:21:33;;;;;;;;;;;3.00;99.90;;;;;;4178218;28;19929;-50
2022/02/25 05:23:35;;;;;;;;;;;3.00;99.90;;;;;;4176056;28;19933;-49
2022/02/25 05:25:37;;;;;;;;;;;3.10;99.90;;;;;;4176174;28;19932;-48
2022/02/25 05:27:39;;;;;;;;;;;3.10;99.90;;;;;;4171518;28;19936;-50
2022/02/25 05:29:49;;;;;;;;;;;3.10;99.90;;;;;;4174693;28;19960;-48
2022/02/25 05:31:51;;;;;;;;;;;3.10;99.90;;;;;;4172102;28;20284;-48
2022/02/25 05:33:53;;;;;;;;;;;3.10;99.90;;;;;;4177986;28;19928;-50
2022/02/25 05:35:55;;;;;;;;;;;3.10;99.90;;;;;;4174416;28;19929;-49
2022/02/25 05:37:57;;;;;;;;;;;3.20;99.90;;;;;;4176067;28;20361;-51
2022/02/25 05:39:59;;;;;;;;;;;3.30;99.90;;;;;;4177803;28;20342;-50
2022/02/25 05:42:01;;;;;;;;;;;3.30;99.90;;;;;;4176233;28;20301;-47
2022/02/25 05:44:03;;;;;;;;;;;3.30;99.90;;;;;;4174215;28;19933;-50
2022/02/25 05:46:05;;;;;;;;;;;3.30;99.90;;;;;;4175549;28;19929;-49
2022/02/25 05:48:07;;;;;;;;;;;3.40;99.90;;;;;;4175295;28;20273;-50
2022/02/25 05:50:12;;;;;;;;;;;3.40;99.90;;;;;;4175907;28;19960;-48
2022/02/25 05:52:14;;;;;;;;;;;3.50;99.90;;;;;;4177107;28;20432;-50
2022/02/25 05:54:16;;;;;;;;;;;3.50;99.90;;;;;;4173692;28;19929;-47
2022/02/25 05:56:18;;;;;;;;;;;3.50;99.90;;;;;;4174902;28;20417;-49
2022/02/25 05:58:20;;;;;;;;;;;3.50;99.90;;;;;;4177316;28;19965;-50
2022/02/25 06:00:23;;;;;;;;;;;3.50;99.90;;;;;;4172009;28;19937;-50
2022/02/25 06:02:25;;;;;;;;;;;3.60;99.90;;;;;;4176107;28;20015;-48
2022/02/25 06:04:27;;;;;;;;;;;3.50;99.90;;;;;;4175883;28;20427;-50
2022/02/25 06:06:32;;;;;;;;;;;3.60;99.90;;;;;;4173963;28;19925;-49
2022/02/25 06:08:34;;;;;;;;;;;3.70;99.90;;;;;;4174861;28;20400;-50
2022/02/25 06:10:36;;;;;;;;;;;3.60;99.90;;;;;;4165461;28;20569;-50
2022/02/25 06:12:39;;;;;;;;;;;3.50;99.90;;;;;;4169994;28;19929;-51
2022/02/25 06:14:41;;;;;;;;;;;3.50;99.90;;;;;;4176916;28;19986;-50
2022/02/25 06:16:42;;;;;;;;;;;3.40;99.90;;;;;;4170659;28;19925;-48
2022/02/25 06:18:44;;;;;;;;;;;3.40;99.90;;;;;;4170632;28;19962;-46
2022/02/25 06:20:46;;;;;;;;;;;3.40;99.90;;;;;;4176685;28;20027;-51
2022/02/25 06:22:48;;;;;;;;;;;3.30;99.90;;;;;;4169008;28;20396;-48
2022/02/25 06:24:50;;;;;;;;;;;3.40;99.90;;;;;;4167621;28;19929;-50
2022/02/25 06:26:52;;;;;;;;;;;3.30;99.90;;;;;;4175855;28;19925;-51
2022/02/25 06:28:54;;;;;;;;;;;3.30;99.90;;;;;;4169730;28;19969;-49
2022/02/25 06:30:56;;;;;;;;;;;3.40;99.90;;;;;;4166482;28;20305;-51
2022/02/25 06:32:58;;;;;;;;;;;3.60;99.90;;;;;;4164107;28;20008;-50
2022/02/25 06:35:00;;;;;;;;;;;3.70;99.90;;;;;;4169026;28;19939;-49
2022/02/25 06:37:02;;;;;;;;;;;3.70;99.90;;;;;;4170021;28;19936;-48
2022/02/25 06:39:05;;;;;;;;;;;3.60;99.90;;;;;;4168416;28;19932;-49
2022/02/25 06:41:07;;;;;;;;;;;3.60;99.90;;;;;;4172474;28;19971;-49
2022/02/25 06:43:09;;;;;;;;;;;3.70;99.90;;;;;;4169755;28;19972;-49
2022/02/25 06:45:11;;;;;;;;;;;3.70;99.90;;;;;;4172370;28;19925;-49
2022/02/25 06:47:14;;;;;;;;;;;3.80;99.90;;;;;;4175059;28;19929;-49
2022/02/25 06:49:16;;;;;;;;;;;3.80;99.90;;;;;;4176920;28;19978;-49
2022/02/25 06:51:18;;;;;;;;;;;3.80;99.90;;;;;;4174548;28;19929;-47
2022/02/25 06:53:20;;;;;;;;;;;3.80;99.90;;;;;;4172618;28;19966;-50
2022/02/25 06:55:22;;;;;;;;;;;3.90;99.90;;;;;;4173906;28;19925;-50
2022/02/25 06:57:42;;;;;;;;;;;3.90;99.90;;;;;;4178393;28;19929;-50
2022/02/25 06:59:44;;;;;;;;;;;4.20;99.90;;;;;;4177736;28;19924;-50
2022/02/25 07:01:47;;;;;;;;;;;4.40;99.90;;;;;;4170722;28;19928;-49
2022/02/25 07:03:49;;;;;;;;;;;4.50;99.90;;;;;;4180438;28;20406;-51
2022/02/25 07:05:51;;;;;;;;;;;4.60;99.90;;;;;;4177062;28;19928;-51
2022/02/25 07:07:54;;;;;;;;;;;4.70;99.90;;;;;;4177590;28;19945;-51
2022/02/25 07:10:03;;;;;;;;;;;4.70;99.90;;;;;;4178707;28;19974;-51
2022/02/25 07:12:06;;;;;;;;;;;4.70;99.90;;;;;;4173726;28;19964;-50
2022/02/25 07:14:09;;;;;;;;;;;4.70;99.90;;;;;;4178199;28;19994;-50
2022/02/25 07:16:11;;;;;;;;;;;4.70;99.90;;;;;;4179740;28;19928;-51
2022/02/25 07:18:15;;;;;;;;;;;4.70;99.90;;;;;;4172604;28;19968;-50
2022/02/25 07:20:17;;;;;;;;;;;4.70;99.90;;;;;;4169079;28;19928;-51
2022/02/25 07:22:20;;;;;;;;;;;4.60;99.90;;;;;;4178997;28;19928;-49
2022/02/25 07:24:22;;;;;;;;;;;4.60;99.90;;;;;;4177162;28;19978;-50
2022/02/25 07:26:24;;;;;;;;;;;4.60;99.90;;;;;;4177884;28;19929;-50
2022/02/25 07:28:26;;;;;;;;;;;4.60;99.90;;;;;;4179864;28;19932;-51
2022/02/25 07:30:28;;;;;;;;;;;4.60;99.90;;;;;;4176741;28;19970;-50
2022/02/25 07:32:30;;;;;;;;;;;4.60;99.90;;;;;;4176966;28;19925;-49
2022/02/25 07:34:32;;;;;;;;;;;4.60;99.90;;;;;;4179561;28;19925;-49
2022/02/25 07:36:35;;;;;;;;;;;4.70;99.90;;;;;;4177730;28;20002;-48
2022/02/25 07:38:37;;;;;;;;;;;4.70;99.90;;;;;;4177595;28;19933;-51
2022/02/25 07:40:39;;;;;;;;;;;4.80;99.90;;;;;;4172488;28;20290;-51
2022/02/25 07:42:41;;;;;;;;;;;4.90;99.90;;;;;;4171409;28;20476;-50
2022/02/25 07:44:43;;;;;;;;;;;4.90;99.90;;;;;;4179299;28;20023;-48
2022/02/25 07:46:46;;;;;;;;;;;4.90;99.90;;;;;;4178657;28;20396;-52
2022/02/25 07:48:57;;;;;;;;;;;5.00;99.90;;;;;;4177665;28;19935;-51
2022/02/25 07:50:59;;;;;;;;;;;5.10;99.90;;;;;;4177960;28;19970;-50
2022/02/25 07:53:01;;;;;;;;;;;5.20;99.90;;;;;;4177924;28;20450;-50
2022/02/25 07:55:03;;;;;;;;;;;5.30;99.90;;;;;;4175242;28;19959;-51
2022/02/25 07:57:05;;;;;;;;;;;5.40;99.90;;;;;;4178252;28;20376;-49
2022/02/25 07:59:07;;;;;;;;;;;5.40;99.90;;;;;;4176955;28;19936;-48
2022/02/25 08:01:10;;;;;;;;;;;5.40;99.90;;;;;;4175995;28;19936;-50
2022/02/25 08:03:12;;;;;;;;;;;5.50;99.90;;;;;;4179033;28;19951;-50
2022/02/25 08:05:14;;;;;;;;;;;5.40;99.90;;;;;;4175734;28;19979;-51
2022/02/25 08:07:16;;;;;;;;;;;5.50;99.90;;;;;;4175794;28;19972;-51
2022/02/25 08:09:19;;;;;;;;;;;5.50;99.90;;;;;;4163445;28;20102;-51
2022/02/25 08:11:21;;;;;;;;;;;5.60;99.90;;;;;;4167462;28;19991;-50
2022/02/25 08:13:22;;;;;;;;;;;5.60;99.90;;;;;;4169393;28;19925;-51
2022/02/25 08:15:25;;;;;;;;;;;5.70;99.90;;;;;;4179193;28;20388;-50
2022/02/25 08:17:26;;;;;;;;;;;5.70;99.90;;;;;;4171339;28;19992;-50
2022/02/25 08:19:28;;;;;;;;;;;5.70;99.90;;;;;;4177232;28;19983;-52
2022/02/25 08:21:30;;;;;;;;;;;5.90;99.90;;;;;;4175153;28;20581;-51
2022/02/25 08:23:32;;;;;;;;;;;5.90;99.90;;;;;;4175827;28;19932;-48
2022/02/25 08:25:36;;;;;;;;;;;5.90;99.90;;;;;;4177329;28;19935;-50
2022/02/25 08:27:38;;;;;;;;;;;6.00;99.90;;;;;;4173337;28;19925;-52
2022/02/25 08:29:40;;;;;;;;;;;6.00;99.90;;;;;;4170328;28;19929;-51
2022/02/25 08:31:44;;;;;;;;;;;5.90;99.90;;;;;;4176344;28;19929;-50
2022/02/25 08:33:46;;;;;;;;;;;5.90;99.90;;;;;;4178725;28;20388;-51
2022/02/25 08:35:48;;;;;;;;;;;6.00;99.90;;;;;;4177045;28;19925;-51
2022/02/25 08:37:50;;;;;;;;;;;6.10;99.90;;;;;;4167498;28;19967;-51
2022/02/25 08:39:52;;;;;;;;;;;6.20;99.90;;;;;;4173214;28;19929;-50
2022/02/25 08:41:55;;;;;;;;;;;6.10;99.90;;;;;;4176810;28;19928;-51
2022/02/25 08:43:56;;;;;;;;;;;6.20;99.90;;;;;;4168405;28;20417;-51
2022/02/25 08:45:58;;;;;;;;;;;6.40;99.90;;;;;;4174765;28;19929;-52
2022/02/25 08:48:00;;;;;;;;;;;6.50;99.90;;;;;;4171889;28;19925;-52
2022/02/25 08:50:03;;;;;;;;;;;6.80;99.90;;;;;;4175935;28;19929;-48
2022/02/25 08:52:09;;;;;;;;;;;7.10;99.90;;;;;;4178350;28;20518;-49
2022/02/25 08:54:11;;;;;;;;;;;7.10;99.90;;;;;;4175777;28;19999;-48
2022/02/25 08:56:14;;;;;;;;;;;7.20;99.90;;;;;;4171601;28;19929;-49
2022/02/25 08:58:16;;;;;;;;;;;7.30;99.90;;;;;;4178383;28;19975;-49
2022/02/25 09:00:23;;;;;;;;;;;7.30;99.90;;;;;;4176756;28;19931;-50
2022/02/25 09:02:25;;;;;;;;;;;7.30;99.90;;;;;;4173085;28;19995;-49
2022/02/25 09:04:27;;;;;;;;;;;7.40;99.90;;;;;;4178213;28;19932;-50
2022/02/25 09:06:29;;;;;;;;;;;7.50;99.90;;;;;;4172423;28;20289;-48
2022/02/25 09:08:31;;;;;;;;;;;7.70;99.90;;;;;;4175224;28;19925;-49
2022/02/25 09:10:33;;;;;;;;;;;7.70;99.90;;;;;;4178250;28;19924;-49
2022/02/25 09:12:36;;;;;;;;;;;7.70;99.90;;;;;;4176235;28;20340;-51
2022/02/25 09:14:38;;;;;;;;;;;7.70;99.90;;;;;;4176347;28;19975;-52
2022/02/25 09:16:40;;;;;;;;;;;7.80;99.90;;;;;;4178052;28;19928;-50
2022/02/25 09:18:42;;;;;;;;;;;7.80;99.90;;;;;;4175053;28;19959;-49
2022/02/25 09:20:44;;;;;;;;;;;7.90;99.90;;;;;;4177209;28;19924;-52
2022/02/25 09:22:46;;;;;;;;;;;8.00;99.90;;;;;;4176404;28;19931;-51
2022/02/25 09:24:48;;;;;;;;;;;8.10;99.90;;;;;;4176020;28;19975;-51
2022/02/25 09:26:50;;;;;;;;;;;8.20;99.90;;;;;;4178329;28;19931;-50
2022/02/25 09:28:52;;;;;;;;;;;8.30;99.90;;;;;;4175002;28;19936;-50
2022/02/25 09:30:54;;;;;;;;;;;8.30;99.90;;;;;;4175138;28;19928;-51
2022/02/25 09:32:57;;;;;;;;;;;8.50;99.90;;;;;;4177943;28;19924;-52
2022/02/25 09:34:59;;;;;;;;;;;8.60;99.90;;;;;;4176232;28;19932;-52
2022/02/25 09:37:02;;;;;;;;;;;8.50;99.90;;;;;;4176007;28;19924;-51
2022/02/25 09:39:03;;;;;;;;;;;8.40;99.90;;;;;;4178003;28;19925;-49
2022/02/25 09:41:06;;;;;;;;;;;8.30;99.90;;;;;;4175323;28;19986;-51
2022/02/25 09:43:08;;;;;;;;;;;8.20;99.90;;;;;;4176106;28;19925;-53
2022/02/25 09:45:11;;;;;;;;;;;8.30;99.90;;;;;;4177806;28;20035;-51
2022/02/25 09:47:14;;;;;;;;;;;8.40;99.90;;;;;;4175577;28;20400;-51
2022/02/25 09:49:16;;;;;;;;;;;8.60;99.90;;;;;;4175760;28;19948;-51
2022/02/25 09:51:18;;;;;;;;;;;8.70;99.90;;;;;;4177116;28;19979;-52
2022/02/25 09:53:20;;;;;;;;;;;8.80;99.90;;;;;;4175879;28;20333;-51
2022/02/25 09:55:24;;;;;;;;;;;8.70;99.90;;;;;;4176590;28;20736;-51
2022/02/25 09:57:28;;;;;;;;;;;8.80;99.90;;;;;;4177557;28;20401;-52
2022/02/25 09:59:30;;;;;;;;;;;8.70;99.90;;;;;;4170084;28;19925;-51
2022/02/25 10:01:33;;;;;;;;;;;8.70;99.90;;;;;;4164443;28;19929;-49
2022/02/25 10:03:35;;;;;;;;;;;8.80;99.90;;;;;;4164932;28;19929;-51
2022/02/25 10:05:37;;;;;;;;;;;8.80;99.90;;;;;;4172905;28;19933;-51
2022/02/25 10:07:40;;;;;;;;;;;8.70;99.90;;;;;;4175961;28;19929;-51
2022/02/25 10:09:42;;;;;;;;;;;8.80;99.90;;;;;;4166638;28;19987;-51
2022/02/25 10:11:59;;;;;;;;;;;8.80;99.90;;;;;;4170080;28;19928;-51
2022/02/25 10:14:11;;;;;;;;;;;8.90;99.90;;;;;;4165774;28;20400;-52
2022/02/25 10:16:13;;;;;;;;;;;8.80;99.90;;;;;;4165917;28;19939;-51
2022/02/25 10:18:22;;;;;;;;;;;8.90;99.90;;;;;;4171022;28;19928;-51
2022/02/25 10:20:25;;;;;;;;;;;8.90;99.90;;;;;;4164719;28;19924;-51
2022/02/25 10:22:42;;;;;;;;;;;8.80;99.90;;;;;;4166064;28;19967;-51
2022/02/25 10:24:49;;;;;;;;;;;8.70;99.90;;;;;;4165435;28;19925;-51
2022/02/25 10:26:51;;;;;;;;;;;8.70;99.90;;;;;;4168001;28;19925;-52
2022/02/25 10:28:54;;;;;;;;;;;8.70;99.90;;;;;;4167463;28;20301;-49
2022/02/25 10:31:14;;;;;;;;;;;8.70;99.90;;;;;;4174669;28;19929;-49
2022/02/25 10:33:18;;;;;;;;;;;8.60;99.90;;;;;;4171904;28;20392;-51
2022/02/25 10:35:34;;;;;;;;;;;8.60;99.90;;;;;;4161513;28;19925;-51
2022/02/25 10:37:51;;;;;;;;;;;8.70;99.90;;;;;;4172984;28;19936;-52
2022/02/25 10:39:53;;;;;;;;;;;8.60;99.90;;;;;;4174235;28;19940;-51
2022/02/25 10:41:59;;;;;;;;;;;8.60;99.90;;;;;;4163389;28;19943;-51
2022/02/25 10:44:01;;;;;;;;;;;8.50;99.90;;;;;;4169786;28;20263;-48
2022/02/25 10:46:10;;;;;;;;;;;8.50;99.90;;;;;;4163895;28;19929;-51
2022/02/25 10:48:13;;;;;;;;;;;8.50;99.90;;;;;;4164041;28;19967;-51
2022/02/25 10:50:15;;;;;;;;;;;8.50;99.90;;;;;;4173368;28;19925;-51
2022/02/25 10:52:19;;;;;;;;;;;8.50;99.90;;;;;;4164718;28;20452;-51
2022/02/25 10:54:35;;;;;;;;;;;8.60;99.90;;;;;;4165201;28;20353;-50
2022/02/25 10:56:43;;;;;;;;;;;8.60;99.90;;;;;;4175786;28;19933;-53
2022/02/25 10:58:52;;;;;;;;;;;8.60;99.90;;;;;;4175102;28;19932;-52
2022/02/25 11:01:01;;;;;;;;;;;8.70;99.90;;;;;;4169291;28;20360;-52
2022/02/25 11:03:03;;;;;;;;;;;8.70;99.90;;;;;;4174369;28;19929;-52
2022/02/25 11:05:05;;;;;;;;;;;8.70;99.90;;;;;;4164538;28;19935;-52
2022/02/25 11:07:07;;;;;;;;;;;8.70;99.90;;;;;;4165598;28;19959;-53
2022/02/25 11:09:09;;;;;;;;;;;8.60;99.90;;;;;;4166859;28;19928;-52
2022/02/25 11:11:11;;;;;;;;;;;8.60;99.90;;;;;;4169449;28;19929;-49
2022/02/25 11:13:15;;;;;;;;;;;8.60;99.90;;;;;;4169210;28;19964;-51
2022/02/25 11:15:19;;;;;;;;;;;8.60;99.90;;;;;;4165450;28;19940;-51
2022/02/25 11:17:21;;;;;;;;;;;8.80;99.90;;;;;;4164058;28;19982;-53
2022/02/25 11:19:24;;;;;;;;;;;9.10;99.90;;;;;;4173847;28;20016;-51
2022/02/25 11:21:27;;;;;;;;;;;9.60;99.90;;;;;;4165588;28;19924;-52
2022/02/25 11:23:29;;;;;;;;;;;9.50;99.90;;;;;;4170379;28;19952;-52
2022/02/25 11:25:32;;;;;;;;;;;9.50;99.90;;;;;;4163388;28;19933;-52
2022/02/25 11:27:35;;;;;;;;;;;9.20;99.90;;;;;;4169021;28;19928;-51
2022/02/25 11:29:57;;;;;;;;;;;9.20;99.90;;;;;;4174714;28;19929;-51
2022/02/25 11:32:01;;;;;;;;;;;9.20;99.90;;;;;;4174278;28;19924;-51
2022/02/25 11:34:05;;;;;;;;;;;9.40;99.90;;;;;;4175835;28;19928;-52
2022/02/25 11:36:09;;;;;;;;;;;9.40;99.90;;;;;;4165872;28;19964;-51
2022/02/25 11:38:11;;;;;;;;;;;9.30;99.90;;;;;;4166681;28;19952;-52
2022/02/25 11:40:13;;;;;;;;;;;9.30;99.90;;;;;;4175064;28;19955;-52
2022/02/25 11:42:26;;;;;;;;;;;9.30;99.90;;;;;;4168303;28;19960;-52
2022/02/25 11:44:32;;;;;;;;;;;9.20;99.90;;;;;;4178311;28;19929;-52
2022/02/25 11:46:34;;;;;;;;;;;9.30;99.90;;;;;;4174592;28;20429;-51
2022/02/25 11:48:37;;;;;;;;;;;9.50;99.90;;;;;;4164386;28;19932;-51
2022/02/25 11:50:39;;;;;;;;;;;9.40;99.90;;;;;;4166713;28;19929;-52
2022/02/25 11:52:41;;;;;;;;;;;9.20;99.90;;;;;;4170154;28;19924;-51
2022/02/25 11:54:46;;;;;;;;;;;9.10;99.90;;;;;;4165545;28;19936;-51
2022/02/25 11:56:58;;;;;;;;;;;9.20;99.90;;;;;;4179034;28;19956;-52
2022/02/25 11:59:01;;;;;;;;;;;9.20;99.90;;;;;;4174520;28;19936;-51
2022/02/25 12:01:04;;;;;;;;;;;9.20;99.90;;;;;;4172155;28;19952;-51
2022/02/25 12:03:07;;;;;;;;;;;9.30;99.90;;;;;;4167605;28;19929;-51
2022/02/25 12:05:12;;;;;;;;;;;9.50;99.90;;;;;;4174889;28;20355;-52
2022/02/25 12:07:13;;;;;;;;;;;9.50;99.90;;;;;;4173988;28;20736;-52
2022/02/25 12:09:35;;;;;;;;;;;9.40;99.90;;;;;;4193290;28;19932;-52
2022/02/25 12:11:37;;;;;;;;;;;9.40;99.90;;;;;;4172308;28;19929;-53
2022/02/25 12:13:45;;;;;;;;;;;9.50;99.90;;;;;;4174715;28;19971;-52